createdAt,value
2018-04-19T00:00:49.187Z,15.88
2018-04-19T00:01:49.178Z,15.88
2018-04-19T00:02:49.169Z,15.88
2018-04-19T00:03:49.160Z,15.86
2018-04-19T00:04:49.153Z,15.88
2018-04-19T00:05:49.147Z,15.91
2018-04-19T00:06:49.145Z,15.91
2018-04-19T00:07:49.133Z,15.80
2018-04-19T00:08:49.123Z,15.81
2018-04-19T00:09:49.115Z,15.85
2018-04-19T00:10:49.108Z,15.85
2018-04-19T00:11:49.165Z,15.80
2018-04-19T00:12:49.100Z,15.88
2018-04-19T00:13:49.089Z,15.81
2018-04-19T00:14:49.081Z,15.84
2018-04-19T00:15:49.076Z,15.81
2018-04-19T00:16:49.064Z,15.81
2018-04-19T00:17:49.058Z,15.89
2018-04-19T00:18:49.050Z,15.89
2018-04-19T00:19:49.044Z,15.85
2018-04-19T00:20:49.040Z,15.76
2018-04-19T00:21:49.030Z,15.76
2018-04-19T00:22:49.030Z,15.68
2018-04-19T00:23:49.016Z,15.70
2018-04-19T00:24:49.013Z,15.70
2018-04-19T00:25:49.002Z,15.70
2018-04-19T00:26:48.994Z,15.76
2018-04-19T00:27:48.984Z,15.74
2018-04-19T00:28:48.978Z,15.74
2018-04-19T00:29:48.973Z,15.70
2018-04-19T00:30:48.969Z,15.71
2018-04-19T00:31:48.962Z,15.73
2018-04-19T00:32:48.954Z,15.64
2018-04-19T00:33:48.940Z,15.56
2018-04-19T00:34:48.939Z,15.52
2018-04-19T00:35:48.925Z,15.59
2018-04-19T00:36:48.920Z,15.60
2018-04-19T00:37:48.912Z,15.51
2018-04-19T00:38:48.905Z,15.48
2018-04-19T00:39:48.899Z,15.44
2018-04-19T00:40:48.889Z,15.44
2018-04-19T00:41:48.892Z,15.34
2018-04-19T00:42:48.875Z,15.28
2018-04-19T00:43:48.869Z,15.18
2018-04-19T00:44:48.859Z,15.13
2018-04-19T00:45:48.853Z,15.20
2018-04-19T00:46:48.857Z,15.16
2018-04-19T00:47:48.838Z,15.12
2018-04-19T00:48:48.830Z,15.09
2018-04-19T00:49:48.823Z,15.03
2018-04-19T00:50:48.818Z,15.03
2018-04-19T00:51:48.807Z,14.97
2018-04-19T00:52:48.806Z,14.87
2018-04-19T00:53:48.794Z,14.82
2018-04-19T00:54:48.789Z,14.94
2018-04-19T00:55:48.782Z,14.79
2018-04-19T00:56:48.781Z,14.75
2018-04-19T00:57:48.772Z,14.78
2018-04-19T00:58:48.758Z,14.75
2018-04-19T00:59:48.747Z,14.80
2018-04-19T01:00:48.747Z,14.71
2018-04-19T01:01:48.734Z,14.61
2018-04-19T01:02:48.726Z,14.60
2018-04-19T01:04:48.717Z,14.53
2018-04-19T01:05:48.708Z,14.46
2018-04-19T01:06:48.701Z,14.45
2018-04-19T01:07:48.695Z,14.44
2018-04-19T01:08:48.686Z,14.41
2018-04-19T01:09:48.693Z,14.39
2018-04-19T01:10:48.671Z,14.39
2018-04-19T01:11:48.661Z,14.36
2018-04-19T01:12:48.655Z,14.19
2018-04-19T01:13:48.646Z,14.20
2018-04-19T01:14:48.639Z,14.20
2018-04-19T01:15:48.632Z,14.13
2018-04-19T01:16:48.622Z,14.12
2018-04-19T01:17:48.616Z,14.09
2018-04-19T01:18:48.609Z,14.11
2018-04-19T01:19:48.600Z,14.11
2018-04-19T01:20:48.590Z,14.17
2018-04-19T01:21:48.583Z,14.17
2018-04-19T01:22:48.576Z,14.06
2018-04-19T01:23:48.573Z,14.05
2018-04-19T01:24:48.561Z,14.02
2018-04-19T01:25:48.554Z,14.08
2018-04-19T01:26:48.543Z,13.98
2018-04-19T01:28:48.529Z,13.88
2018-04-19T01:29:48.520Z,13.94
2018-04-19T01:30:48.512Z,13.98
2018-04-19T01:31:48.506Z,13.98
2018-04-19T01:32:48.494Z,13.98
2018-04-19T01:33:48.488Z,14.19
2018-04-19T01:34:48.484Z,14.21
2018-04-19T01:35:48.473Z,14.09
2018-04-19T01:36:48.464Z,14.17
2018-04-19T01:37:48.456Z,14.11
2018-04-19T01:38:48.447Z,14.08
2018-04-19T01:39:48.438Z,14.02
2018-04-19T01:40:48.432Z,13.99
2018-04-19T01:41:48.423Z,13.96
2018-04-19T01:42:48.416Z,13.94
2018-04-19T01:43:48.405Z,13.79
2018-04-19T01:44:48.402Z,13.80
2018-04-19T01:45:48.391Z,13.71
2018-04-19T01:46:48.382Z,13.69
2018-04-19T01:47:48.373Z,13.73
2018-04-19T01:48:48.367Z,13.66
2018-04-19T01:49:48.361Z,13.69
2018-04-19T01:50:48.353Z,13.55
2018-04-19T01:51:48.339Z,13.50
2018-04-19T01:52:48.330Z,13.48
2018-04-19T01:53:48.325Z,13.53
2018-04-19T01:54:48.318Z,13.62
2018-04-19T01:55:48.308Z,13.61
2018-04-19T01:56:48.298Z,13.61
2018-04-19T01:57:48.293Z,13.65
2018-04-19T01:58:48.284Z,13.65
2018-04-19T01:59:48.277Z,13.63
2018-04-19T02:00:48.265Z,13.69
2018-04-19T02:01:48.256Z,13.66
2018-04-19T02:02:48.249Z,13.48
2018-04-19T02:03:48.242Z,13.51
2018-04-19T02:04:48.231Z,13.51
2018-04-19T02:05:48.222Z,13.53
2018-04-19T02:06:48.217Z,13.46
2018-04-19T02:07:48.208Z,13.38
2018-04-19T02:08:48.199Z,13.39
2018-04-19T02:09:48.193Z,13.35
2018-04-19T02:10:48.179Z,13.39
2018-04-19T02:11:48.176Z,13.44
2018-04-19T02:12:48.165Z,13.28
2018-04-19T02:13:48.157Z,13.31
2018-04-19T02:14:48.147Z,13.28
2018-04-19T02:15:48.142Z,13.24
2018-04-19T02:16:48.128Z,13.41
2018-04-19T02:17:48.121Z,13.39
2018-04-19T02:18:48.117Z,13.39
2018-04-19T02:19:48.101Z,13.41
2018-04-19T02:20:48.095Z,13.32
2018-04-19T02:21:48.088Z,13.28
2018-04-19T02:22:48.078Z,13.31
2018-04-19T02:23:48.069Z,13.21
2018-04-19T02:24:48.060Z,13.25
2018-04-19T02:25:48.053Z,13.19
2018-04-19T02:26:48.044Z,13.09
2018-04-19T02:27:48.033Z,13.10
2018-04-19T02:28:48.028Z,13.03
2018-04-19T02:29:48.016Z,13.03
2018-04-19T02:30:48.010Z,13.12
2018-04-19T02:31:48.003Z,13.09
2018-04-19T02:32:47.991Z,13.01
2018-04-19T02:33:47.982Z,13.10
2018-04-19T02:34:47.972Z,12.95
2018-04-19T02:35:48.037Z,12.89
2018-04-19T02:36:47.958Z,12.91
2018-04-19T02:37:47.948Z,12.88
2018-04-19T02:38:47.940Z,12.92
2018-04-19T02:39:47.931Z,12.98
2018-04-19T02:40:47.922Z,12.96
2018-04-19T02:41:47.914Z,12.94
2018-04-19T02:42:47.905Z,12.88
2018-04-19T02:43:47.892Z,12.91
2018-04-19T02:44:47.886Z,12.80
2018-04-19T02:45:47.876Z,12.92
2018-04-19T02:46:47.867Z,12.85
2018-04-19T02:47:47.860Z,12.85
2018-04-19T02:48:47.853Z,12.89
2018-04-19T02:49:47.844Z,12.81
2018-04-19T02:50:47.833Z,12.85
2018-04-19T02:51:47.847Z,12.79
2018-04-19T02:52:47.813Z,12.80
2018-04-19T02:53:47.805Z,12.76
2018-04-19T02:54:47.799Z,12.76
2018-04-19T02:55:47.786Z,12.70
2018-04-19T02:56:47.778Z,12.70
2018-04-19T02:57:47.799Z,12.67
2018-04-19T02:58:47.760Z,12.66
2018-04-19T02:59:47.750Z,12.70
2018-04-19T03:00:47.740Z,12.59
2018-04-19T03:01:47.737Z,12.62
2018-04-19T03:02:47.727Z,12.70
2018-04-19T03:03:47.716Z,12.70
2018-04-19T03:04:47.708Z,12.70
2018-04-19T03:05:47.700Z,12.69
2018-04-19T03:06:47.689Z,12.73
2018-04-19T03:07:47.679Z,12.69
2018-04-19T03:08:47.671Z,12.69
2018-04-19T03:09:47.912Z,12.66
2018-04-19T03:10:47.654Z,12.67
2018-04-19T03:11:47.648Z,12.67
2018-04-19T03:12:47.633Z,12.59
2018-04-19T03:13:47.627Z,12.58
2018-04-19T03:14:47.619Z,12.51
2018-04-19T03:15:47.607Z,12.51
2018-04-19T03:16:47.603Z,12.54
2018-04-19T03:17:47.588Z,12.48
2018-04-19T03:18:47.579Z,12.38
2018-04-19T03:19:47.571Z,12.40
2018-04-19T03:20:47.565Z,12.31
2018-04-19T03:21:47.562Z,12.34
2018-04-19T03:22:47.543Z,12.25
2018-04-19T03:23:47.535Z,12.26
2018-04-19T03:24:47.526Z,12.41
2018-04-19T03:25:47.517Z,12.48
2018-04-19T03:26:47.508Z,12.46
2018-04-19T03:27:47.500Z,12.40
2018-04-19T03:28:47.487Z,12.40
2018-04-19T03:29:47.482Z,12.38
2018-04-19T03:30:47.469Z,12.37
2018-04-19T03:31:47.461Z,12.37
2018-04-19T03:32:47.451Z,12.37
2018-04-19T03:33:47.442Z,12.33
2018-04-19T03:34:47.435Z,12.38
2018-04-19T03:35:47.426Z,12.36
2018-04-19T03:36:47.412Z,12.29
2018-04-19T03:37:47.406Z,12.29
2018-04-19T03:38:47.399Z,12.25
2018-04-19T03:39:47.388Z,12.29
2018-04-19T03:40:47.384Z,12.13
2018-04-19T03:41:47.366Z,12.21
2018-04-19T03:42:47.358Z,12.21
2018-04-19T03:43:47.349Z,12.11
2018-04-19T03:44:47.342Z,12.13
2018-04-19T03:45:47.334Z,12.12
2018-04-19T03:46:47.321Z,12.03
2018-04-19T03:47:47.310Z,12.04
2018-04-19T03:48:47.301Z,12.03
2018-04-19T03:49:47.294Z,12.00
2018-04-19T03:50:47.283Z,12.05
2018-04-19T03:51:47.272Z,11.96
2018-04-19T03:52:47.266Z,11.88
2018-04-19T03:53:47.255Z,11.94
2018-04-19T03:54:47.245Z,11.85
2018-04-19T03:55:47.238Z,11.85
2018-04-19T03:56:47.230Z,11.93
2018-04-19T03:57:47.217Z,11.87
2018-04-19T03:58:47.211Z,11.84
2018-04-19T03:59:47.201Z,11.85
2018-04-19T04:00:47.189Z,11.82
2018-04-19T04:01:47.182Z,11.85
2018-04-19T04:02:47.170Z,11.74
2018-04-19T04:03:47.160Z,11.87
2018-04-19T04:04:47.152Z,11.78
2018-04-19T04:05:47.148Z,11.78
2018-04-19T04:06:47.131Z,11.81
2018-04-19T04:07:47.122Z,11.79
2018-04-19T04:08:47.115Z,11.72
2018-04-19T04:09:47.103Z,11.81
2018-04-19T04:10:47.095Z,11.81
2018-04-19T04:11:47.083Z,11.74
2018-04-19T04:12:47.074Z,11.77
2018-04-19T04:13:47.067Z,11.78
2018-04-19T04:14:47.054Z,11.74
2018-04-19T04:15:47.049Z,11.74
2018-04-19T04:16:47.035Z,11.79
2018-04-19T04:17:47.027Z,11.79
2018-04-19T04:18:47.016Z,11.74
2018-04-19T04:19:47.007Z,11.77
2018-04-19T04:20:46.997Z,11.81
2018-04-19T04:21:46.987Z,11.74
2018-04-19T04:22:46.980Z,11.75
2018-04-19T04:23:46.967Z,11.70
2018-04-19T04:24:46.958Z,11.69
2018-04-19T04:25:46.946Z,11.67
2018-04-19T04:26:46.942Z,11.67
2018-04-19T04:27:46.933Z,11.72
2018-04-19T04:28:46.917Z,11.81
2018-04-19T04:29:46.914Z,11.74
2018-04-19T04:30:46.900Z,11.75
2018-04-19T04:31:46.890Z,11.77
2018-04-19T04:32:46.879Z,11.82
2018-04-19T04:33:46.870Z,11.84
2018-04-19T04:34:46.861Z,11.85
2018-04-19T04:35:46.852Z,11.93
2018-04-19T04:36:46.839Z,11.87
2018-04-19T04:37:46.833Z,11.85
2018-04-19T04:38:46.819Z,11.93
2018-04-19T04:39:46.809Z,11.82
2018-04-19T04:40:46.802Z,11.88
2018-04-19T04:41:46.790Z,11.88
2018-04-19T04:42:46.783Z,11.90
2018-04-19T04:43:46.771Z,12.03
2018-04-19T04:44:46.760Z,11.98
2018-04-19T04:45:46.750Z,11.97
2018-04-19T04:46:46.745Z,11.90
2018-04-19T04:47:46.747Z,11.84
2018-04-19T04:48:46.724Z,11.85
2018-04-19T04:49:46.714Z,11.84
2018-04-19T04:50:46.703Z,11.75
2018-04-19T04:51:46.695Z,11.78
2018-04-19T04:52:46.682Z,11.82
2018-04-19T04:53:46.673Z,11.84
2018-04-19T04:54:46.665Z,11.85
2018-04-19T04:55:46.654Z,11.74
2018-04-19T04:56:46.647Z,11.78
2018-04-19T04:57:46.640Z,11.82
2018-04-19T04:58:46.625Z,11.72
2018-04-19T04:59:46.614Z,11.72
2018-04-19T05:00:46.606Z,11.84
2018-04-19T05:01:46.596Z,11.81
2018-04-19T05:02:46.584Z,11.84
2018-04-19T05:03:46.576Z,11.81
2018-04-19T05:04:46.569Z,12.08
2018-04-19T05:05:46.611Z,12.52
2018-04-19T05:06:46.548Z,12.67
2018-04-19T05:07:46.536Z,12.87
2018-04-19T05:08:46.531Z,13.12
2018-04-19T05:09:46.516Z,13.22
2018-04-19T05:10:46.509Z,13.35
2018-04-19T05:11:46.496Z,13.39
2018-04-19T05:12:46.488Z,13.38
2018-04-19T05:13:46.479Z,13.35
2018-04-19T05:14:46.470Z,13.44
2018-04-19T05:15:46.458Z,13.61
2018-04-19T05:16:46.456Z,13.72
2018-04-19T05:17:46.442Z,13.68
2018-04-19T05:18:46.433Z,13.79
2018-04-19T05:19:46.424Z,13.98
2018-04-19T05:20:46.414Z,13.98
2018-04-19T05:21:46.407Z,14.01
2018-04-19T05:22:46.397Z,14.04
2018-04-19T05:23:46.384Z,14.08
2018-04-19T05:24:46.380Z,14.26
2018-04-19T05:25:46.371Z,14.19
2018-04-19T05:26:46.360Z,14.20
2018-04-19T05:27:46.356Z,14.20
2018-04-19T05:28:46.348Z,14.45
2018-04-19T05:29:46.334Z,14.53
2018-04-19T05:30:46.328Z,14.60
2018-04-19T05:31:46.334Z,14.60
2018-04-19T05:32:46.309Z,14.66
2018-04-19T05:33:46.300Z,14.79
2018-04-19T05:34:46.290Z,14.74
2018-04-19T05:35:46.283Z,14.85
2018-04-19T05:36:46.277Z,14.78
2018-04-19T05:37:46.267Z,14.80
2018-04-19T05:38:46.260Z,14.78
2018-04-19T05:39:46.248Z,14.85
2018-04-19T05:40:46.243Z,14.75
2018-04-19T05:41:46.241Z,14.82
2018-04-19T05:42:46.229Z,14.86
2018-04-19T05:43:46.213Z,14.74
2018-04-19T05:44:46.210Z,14.87
2018-04-19T05:45:46.206Z,14.97
2018-04-19T05:46:46.192Z,14.94
2018-04-19T05:47:46.187Z,15.09
2018-04-19T05:48:46.177Z,15.27
2018-04-19T05:49:46.170Z,15.19
2018-04-19T05:50:46.160Z,15.23
2018-04-19T05:51:46.155Z,15.34
2018-04-19T05:52:46.144Z,15.41
2018-04-19T05:53:46.138Z,15.31
2018-04-19T05:54:46.131Z,15.30
2018-04-19T05:55:46.122Z,15.38
2018-04-19T05:56:46.112Z,15.37
2018-04-19T05:57:46.108Z,15.56
2018-04-19T05:58:46.103Z,15.58
2018-04-19T05:59:46.095Z,15.56
2018-04-19T06:00:46.085Z,15.58
2018-04-19T06:01:46.078Z,15.66
2018-04-19T06:02:46.075Z,15.68
2018-04-19T06:03:46.065Z,15.74
2018-04-19T06:04:46.055Z,15.80
2018-04-19T06:05:46.049Z,15.91
2018-04-19T06:06:46.043Z,15.86
2018-04-19T06:07:46.032Z,15.88
2018-04-19T06:08:46.027Z,16.03
2018-04-19T06:09:46.019Z,15.96
2018-04-19T06:10:46.019Z,16.06
2018-04-19T06:11:46.006Z,16.08
2018-04-19T06:12:46.002Z,16.08
2018-04-19T06:13:45.992Z,16.18
2018-04-19T06:14:45.984Z,16.23
2018-04-19T06:15:45.979Z,16.27
2018-04-19T06:16:45.974Z,16.23
2018-04-19T06:17:45.965Z,16.36
2018-04-19T06:18:45.956Z,16.55
2018-04-19T06:19:45.953Z,16.65
2018-04-19T06:20:45.947Z,16.73
2018-04-19T06:21:45.936Z,16.73
2018-04-19T06:22:45.934Z,16.81
2018-04-19T06:23:45.925Z,16.96
2018-04-19T06:24:45.919Z,17.00
2018-04-19T06:25:45.915Z,16.91
2018-04-19T06:26:45.909Z,16.87
2018-04-19T06:27:45.899Z,16.87
2018-04-19T06:28:45.893Z,16.96
2018-04-19T06:29:45.887Z,16.85
2018-04-19T06:30:45.880Z,16.82
2018-04-19T06:31:45.881Z,16.82
2018-04-19T06:32:45.869Z,16.77
2018-04-19T06:33:45.866Z,16.78
2018-04-19T06:34:45.866Z,16.87
2018-04-19T06:35:45.849Z,16.87
2018-04-19T06:36:45.844Z,16.84
2018-04-19T06:37:45.836Z,16.85
2018-04-19T06:38:45.832Z,16.87
2018-04-19T06:39:45.823Z,16.84
2018-04-19T06:40:45.818Z,16.85
2018-04-19T06:41:45.811Z,16.96
2018-04-19T06:42:45.808Z,16.95
2018-04-19T06:43:45.799Z,16.91
2018-04-19T06:44:45.796Z,17.02
2018-04-19T06:45:45.785Z,16.98
2018-04-19T06:46:45.783Z,17.06
2018-04-19T06:47:45.779Z,17.14
2018-04-19T06:48:45.771Z,17.24
2018-04-19T06:49:45.763Z,17.24
2018-04-19T06:50:45.759Z,17.32
2018-04-19T06:51:45.751Z,17.24
2018-04-19T06:52:45.746Z,17.24
2018-04-19T06:53:45.742Z,17.32
2018-04-19T06:54:45.737Z,17.25
2018-04-19T06:55:45.728Z,17.32
2018-04-19T06:56:45.725Z,17.27
2018-04-19T06:57:45.716Z,17.36
2018-04-19T06:58:45.716Z,17.30
2018-04-19T06:59:45.707Z,17.38
2018-04-19T07:00:45.704Z,17.33
2018-04-19T07:01:45.696Z,17.42
2018-04-19T07:02:45.693Z,17.53
2018-04-19T07:03:45.687Z,17.57
2018-04-19T07:04:45.677Z,17.55
2018-04-19T07:05:45.673Z,17.60
2018-04-19T07:06:45.669Z,17.60
2018-04-19T07:07:45.660Z,17.62
2018-04-19T07:08:45.658Z,17.65
2018-04-19T07:09:45.652Z,17.63
2018-04-19T07:10:45.646Z,17.70
2018-04-19T07:11:45.641Z,17.73
2018-04-19T07:12:45.637Z,17.76
2018-04-19T07:13:45.631Z,17.76
2018-04-19T07:14:45.653Z,17.77
2018-04-19T07:15:45.618Z,17.91
2018-04-19T07:16:45.614Z,17.91
2018-04-19T07:17:45.609Z,18.02
2018-04-19T07:18:45.603Z,18.01
2018-04-19T07:19:45.599Z,18.09
2018-04-19T07:20:45.594Z,18.11
2018-04-19T07:21:45.588Z,18.28
2018-04-19T07:22:45.586Z,18.39
2018-04-19T07:23:45.582Z,18.42
2018-04-19T07:24:45.571Z,18.50
2018-04-19T07:25:45.581Z,18.51
2018-04-19T07:26:45.565Z,18.56
2018-04-19T07:27:45.552Z,18.51
2018-04-19T07:28:45.551Z,18.62
2018-04-19T07:29:45.550Z,18.72
2018-04-19T07:30:45.544Z,18.64
2018-04-19T07:31:45.538Z,18.79
2018-04-19T07:32:45.530Z,18.75
2018-04-19T07:33:45.527Z,18.78
2018-04-19T07:34:45.529Z,18.74
2018-04-19T07:35:45.520Z,18.84
2018-04-19T07:36:45.512Z,18.83
2018-04-19T07:37:45.507Z,18.86
2018-04-19T07:38:45.507Z,18.93
2018-04-19T07:39:45.497Z,18.97
2018-04-19T07:40:45.493Z,19.05
2018-04-19T07:41:45.492Z,19.02
2018-04-19T07:42:45.485Z,19.09
2018-04-19T07:43:45.479Z,19.07
2018-04-19T07:44:45.473Z,19.13
2018-04-19T07:45:45.470Z,19.13
2018-04-19T07:46:45.470Z,19.23
2018-04-19T07:47:45.462Z,19.32
2018-04-19T07:48:45.457Z,19.35
2018-04-19T07:49:45.451Z,19.49
2018-04-19T07:50:45.448Z,19.49
2018-04-19T07:51:45.443Z,19.57
2018-04-19T07:52:45.435Z,19.57
2018-04-19T07:53:45.431Z,19.67
2018-04-19T07:54:45.428Z,19.76
2018-04-19T07:55:45.421Z,19.83
2018-04-19T07:56:45.420Z,19.87
2018-04-19T07:57:45.416Z,19.95
2018-04-19T07:58:45.414Z,19.94
2018-04-19T07:59:45.405Z,19.90
2018-04-19T08:00:45.403Z,19.89
2018-04-19T08:01:45.398Z,20.05
2018-04-19T08:02:45.394Z,20.05
2018-04-19T08:03:45.393Z,20.16
2018-04-19T08:04:45.386Z,20.16
2018-04-19T08:05:45.381Z,20.20
2018-04-19T08:06:45.379Z,20.33
2018-04-19T08:07:45.370Z,20.37
2018-04-19T08:08:45.368Z,20.37
2018-04-19T08:09:45.366Z,20.40
2018-04-19T08:10:45.361Z,20.50
2018-04-19T08:11:45.356Z,20.40
2018-04-19T08:12:45.351Z,20.41
2018-04-19T08:13:45.348Z,20.44
2018-04-19T08:14:45.346Z,20.44
2018-04-19T08:15:45.341Z,20.41
2018-04-19T08:16:45.338Z,20.46
2018-04-19T08:17:45.332Z,20.51
2018-04-19T08:18:45.333Z,20.57
2018-04-19T08:19:45.324Z,20.66
2018-04-19T08:20:45.321Z,20.78
2018-04-19T08:21:45.319Z,20.79
2018-04-19T08:22:45.313Z,20.82
2018-04-19T08:23:45.311Z,20.96
2018-04-19T08:24:45.308Z,20.94
2018-04-19T08:25:45.304Z,20.97
2018-04-19T08:26:45.301Z,21.00
2018-04-19T08:27:45.296Z,21.00
2018-04-19T08:28:45.291Z,21.05
2018-04-19T08:29:45.290Z,21.09
2018-04-19T08:30:45.286Z,21.13
2018-04-19T08:31:45.282Z,21.13
2018-04-19T08:32:45.278Z,21.19
2018-04-19T08:33:45.276Z,21.22
2018-04-19T08:34:45.271Z,21.26
2018-04-19T08:35:45.266Z,21.24
2018-04-19T08:36:45.264Z,21.33
2018-04-19T08:37:45.261Z,21.43
2018-04-19T08:38:45.255Z,21.46
2018-04-19T08:39:45.253Z,21.45
2018-04-19T08:40:45.249Z,21.46
2018-04-19T08:41:45.245Z,21.40
2018-04-19T08:42:45.246Z,21.37
2018-04-19T08:43:45.238Z,21.40
2018-04-19T08:44:45.238Z,21.49
2018-04-19T08:45:45.232Z,21.51
2018-04-19T08:46:45.232Z,21.49
2018-04-19T08:47:45.228Z,21.66
2018-04-19T08:48:45.223Z,21.71
2018-04-19T08:49:45.227Z,21.77
2018-04-19T08:50:45.217Z,21.85
2018-04-19T08:51:45.212Z,21.90
2018-04-19T08:52:45.211Z,21.90
2018-04-19T08:53:45.207Z,21.85
2018-04-19T08:54:45.203Z,21.98
2018-04-19T08:55:45.201Z,21.94
2018-04-19T08:56:45.198Z,21.98
2018-04-19T08:57:45.195Z,22.01
2018-04-19T08:58:45.193Z,21.89
2018-04-19T08:59:45.185Z,22.01
2018-04-19T09:00:45.188Z,22.01
2018-04-19T09:01:45.184Z,22.04
2018-04-19T09:02:45.216Z,22.04
2018-04-19T09:03:45.178Z,22.08
2018-04-19T09:04:45.175Z,22.24
2018-04-19T09:05:45.170Z,22.23
2018-04-19T09:06:45.168Z,22.27
2018-04-19T09:07:45.165Z,22.24
2018-04-19T09:08:45.161Z,22.29
2018-04-19T09:09:45.160Z,22.31
2018-04-19T09:10:45.155Z,22.44
2018-04-19T09:11:45.153Z,22.42
2018-04-19T09:12:45.148Z,22.45
2018-04-19T09:13:45.150Z,22.36
2018-04-19T09:14:45.149Z,22.41
2018-04-19T09:15:45.144Z,22.42
2018-04-19T09:16:45.141Z,22.42
2018-04-19T09:17:45.146Z,22.41
2018-04-19T09:18:45.136Z,22.44
2018-04-19T09:19:45.129Z,22.49
2018-04-19T09:20:45.129Z,22.48
2018-04-19T09:21:45.129Z,22.44
2018-04-19T09:22:45.125Z,22.52
2018-04-19T09:23:45.121Z,22.46
2018-04-19T09:24:45.120Z,22.49
2018-04-19T09:25:45.118Z,22.44
2018-04-19T09:26:45.134Z,22.29
2018-04-19T09:27:45.110Z,22.31
2018-04-19T09:28:45.107Z,22.33
2018-04-19T09:29:45.106Z,22.33
2018-04-19T09:30:45.104Z,22.36
2018-04-19T09:31:45.103Z,22.21
2018-04-19T09:32:45.098Z,21.96
2018-04-19T09:33:45.099Z,21.94
2018-04-19T09:34:45.093Z,21.98
2018-04-19T09:35:45.104Z,22.02
2018-04-19T09:36:45.087Z,22.09
2018-04-19T09:37:45.091Z,22.17
2018-04-19T09:38:45.124Z,22.23
2018-04-19T09:39:45.079Z,22.26
2018-04-19T09:40:45.080Z,22.30
2018-04-19T09:41:45.077Z,22.30
2018-04-19T09:42:45.072Z,22.42
2018-04-19T09:43:45.069Z,22.35
2018-04-19T09:44:45.072Z,22.44
2018-04-19T09:45:45.065Z,22.42
2018-04-19T09:46:45.071Z,22.48
2018-04-19T09:47:45.060Z,22.41
2018-04-19T09:48:45.057Z,21.98
2018-04-19T09:49:45.053Z,21.75
2018-04-19T09:50:45.051Z,21.75
2018-04-19T09:51:45.048Z,21.85
2018-04-19T09:52:45.047Z,21.91
2018-04-19T09:53:45.057Z,22.08
2018-04-19T09:54:45.040Z,22.15
2018-04-19T09:55:45.038Z,22.21
2018-04-19T09:56:45.034Z,22.06
2018-04-19T09:57:45.039Z,22.12
2018-04-19T09:58:45.035Z,22.24
2018-04-19T09:59:45.028Z,22.26
2018-04-19T10:00:45.025Z,22.06
2018-04-19T10:01:45.022Z,21.98
2018-04-19T10:02:45.016Z,21.85
2018-04-19T10:03:45.015Z,21.85
2018-04-19T10:04:45.012Z,22.11
2018-04-19T10:05:45.008Z,22.27
2018-04-19T10:06:45.008Z,22.36
2018-04-19T10:07:45.011Z,22.35
2018-04-19T10:08:45.004Z,22.48
2018-04-19T10:09:44.996Z,22.45
2018-04-19T10:10:44.995Z,22.57
2018-04-19T10:11:44.992Z,22.67
2018-04-19T10:12:44.988Z,22.78
2018-04-19T10:13:44.987Z,22.91
2018-04-19T10:14:44.986Z,22.81
2018-04-19T10:15:44.981Z,22.69
2018-04-19T10:16:44.982Z,22.75
2018-04-19T10:17:44.976Z,22.89
2018-04-19T10:18:44.975Z,22.94
2018-04-19T10:19:44.970Z,22.94
2018-04-19T10:20:44.970Z,22.99
2018-04-19T10:21:44.969Z,23.15
2018-04-19T10:22:44.966Z,23.23
2018-04-19T10:23:44.964Z,23.42
2018-04-19T10:24:44.959Z,23.49
2018-04-19T10:25:44.957Z,23.47
2018-04-19T10:26:44.955Z,23.45
2018-04-19T10:27:44.954Z,23.52
2018-04-19T10:28:44.952Z,23.45
2018-04-19T10:29:44.949Z,23.62
2018-04-19T10:30:44.950Z,23.68
2018-04-19T10:31:44.947Z,23.74
2018-04-19T10:32:44.944Z,23.92
2018-04-19T10:38:55.220Z,23.59
2018-04-19T10:39:54.936Z,23.59
2018-04-19T10:40:54.925Z,23.56
2018-04-19T10:41:54.920Z,23.53
2018-04-19T10:42:54.919Z,23.38
2018-04-19T10:43:54.917Z,23.38
2018-04-19T10:44:54.920Z,23.25
2018-04-19T10:45:54.931Z,23.35
2018-04-19T10:46:54.916Z,23.39
2018-04-19T10:47:54.914Z,23.52
2018-04-19T10:48:54.916Z,23.59
2018-04-19T10:49:54.915Z,23.74
2018-04-19T10:50:54.916Z,23.81
2018-04-19T10:51:54.915Z,23.82
2018-04-19T10:52:54.913Z,23.82
2018-04-19T10:53:54.912Z,23.89
2018-04-19T10:54:54.914Z,24.09
2018-04-19T10:55:54.918Z,24.18
2018-04-19T10:56:54.914Z,24.16
2018-04-19T10:57:54.917Z,24.30
2018-04-19T10:58:54.921Z,24.36
2018-04-19T10:59:54.915Z,24.33
2018-04-19T11:00:54.923Z,24.29
2018-04-19T11:01:54.916Z,24.18
2018-04-19T11:02:54.918Z,24.29
2018-04-19T11:03:54.915Z,24.39
2018-04-19T11:04:54.920Z,24.48
2018-04-19T11:05:54.920Z,24.53
2018-04-19T11:06:54.919Z,24.55
2018-04-19T11:07:54.920Z,24.55
2018-04-19T11:08:54.923Z,24.18
2018-04-19T11:09:54.923Z,24.08
2018-04-19T11:10:54.924Z,24.05
2018-04-19T11:11:54.923Z,24.08
2018-04-19T11:12:54.924Z,24.04
2018-04-19T11:13:54.930Z,24.05
2018-04-19T11:14:54.926Z,23.97
2018-04-19T11:15:54.978Z,23.77
2018-04-19T11:16:54.929Z,23.74
2018-04-19T11:17:54.927Z,23.72
2018-04-19T11:18:54.930Z,23.78
2018-04-19T11:19:54.931Z,23.97
2018-04-19T11:20:54.930Z,24.08
2018-04-19T11:21:54.934Z,24.14
2018-04-19T11:22:54.933Z,24.29
2018-04-19T11:23:54.935Z,24.41
2018-04-19T11:24:54.937Z,24.45
2018-04-19T11:25:54.937Z,24.59
2018-04-19T11:26:54.938Z,24.77
2018-04-19T11:27:54.936Z,24.68
2018-04-19T11:28:54.941Z,24.75
2018-04-19T11:29:54.939Z,24.90
2018-04-19T11:30:54.978Z,24.90
2018-04-19T11:31:54.943Z,24.98
2018-04-19T11:32:54.942Z,25.01
2018-04-19T11:33:54.944Z,25.02
2018-04-19T11:34:54.944Z,25.08
2018-04-19T11:35:54.952Z,25.11
2018-04-19T11:36:54.947Z,25.01
2018-04-19T11:37:54.948Z,25.20
2018-04-19T11:38:54.952Z,25.31
2018-04-19T11:39:54.952Z,25.35
2018-04-19T11:40:54.952Z,25.36
2018-04-19T11:41:54.954Z,25.22
2018-04-19T11:42:54.956Z,25.01
2018-04-19T11:43:54.959Z,25.07
2018-04-19T11:44:54.958Z,25.12
2018-04-19T11:45:54.961Z,25.23
2018-04-19T11:46:54.964Z,25.39
2018-04-19T11:47:54.969Z,25.48
2018-04-19T11:48:54.965Z,25.57
2018-04-19T11:49:54.967Z,25.71
2018-04-19T11:50:54.964Z,25.75
2018-04-19T11:51:55.575Z,25.74
2018-04-19T11:52:54.973Z,25.82
2018-04-19T11:53:54.982Z,25.78
2018-04-19T11:54:55.581Z,25.72
2018-04-19T11:55:54.977Z,25.89
2018-04-19T11:56:54.979Z,26.01
2018-04-19T11:57:54.982Z,26.04
2018-04-19T11:58:54.980Z,26.17
2018-04-19T11:59:54.986Z,26.32
2018-04-19T12:00:54.999Z,26.41
2018-04-19T12:01:54.988Z,26.44
2018-04-19T12:02:54.986Z,26.47
2018-04-19T12:03:54.989Z,26.47
2018-04-19T12:04:54.988Z,26.57
2018-04-19T12:05:54.990Z,26.51
2018-04-19T12:06:54.988Z,26.50
2018-04-19T12:07:54.990Z,26.49
2018-04-19T12:08:54.992Z,26.51
2018-04-19T12:09:54.992Z,26.56
2018-04-19T12:10:54.994Z,26.53
2018-04-19T12:11:54.991Z,26.53
2018-04-19T12:12:54.995Z,26.49
2018-04-19T12:13:54.991Z,26.59
2018-04-19T12:14:54.993Z,26.65
2018-04-19T12:15:54.993Z,26.72
2018-04-19T12:16:54.993Z,26.72
2018-04-19T12:17:54.992Z,26.87
2018-04-19T12:18:54.993Z,26.90
2018-04-19T12:19:54.993Z,26.96
2018-04-19T12:20:54.993Z,26.97
2018-04-19T12:21:54.994Z,27.11
2018-04-19T12:22:54.995Z,27.11
2018-04-19T12:23:54.992Z,26.98
2018-04-19T12:24:54.996Z,27.09
2018-04-19T12:25:55.003Z,27.03
2018-04-19T12:26:54.998Z,27.11
2018-04-19T12:27:54.997Z,27.16
2018-04-19T12:28:54.994Z,27.08
2018-04-19T12:29:54.993Z,27.13
2018-04-19T12:30:54.995Z,27.18
2018-04-19T12:31:54.998Z,27.31
2018-04-19T12:32:54.995Z,27.23
2018-04-19T12:33:54.996Z,27.30
2018-04-19T12:34:54.995Z,27.21
2018-04-19T12:35:54.999Z,27.30
2018-04-19T12:36:54.996Z,27.42
2018-04-19T12:37:55.000Z,27.35
2018-04-19T12:38:54.997Z,27.46
2018-04-19T12:39:54.998Z,27.40
2018-04-19T12:40:55.000Z,27.48
2018-04-19T12:41:54.996Z,27.40
2018-04-19T12:42:54.995Z,27.39
2018-04-19T12:43:55.002Z,27.42
2018-04-19T12:44:54.999Z,27.46
2018-04-19T12:45:54.999Z,27.48
2018-04-19T12:46:55.000Z,27.50
2018-04-19T12:47:54.997Z,27.42
2018-04-19T12:48:55.003Z,27.35
2018-04-19T12:49:55.002Z,27.34
2018-04-19T12:50:55.000Z,27.45
2018-04-19T12:51:55.002Z,27.43
2018-04-19T12:52:55.009Z,27.48
2018-04-19T12:53:55.002Z,27.38
2018-04-19T12:54:55.003Z,27.43
2018-04-19T12:55:55.005Z,27.40
2018-04-19T12:56:55.004Z,27.52
2018-04-19T12:57:55.007Z,27.48
2018-04-19T12:58:55.007Z,27.38
2018-04-19T12:59:55.006Z,27.52